sensor_id;sensor_type;location;lat;lon;timestamp;pressure;altitude;pressure_sealevel;temperature;humidity
1832;BME280;1680;48.106;11.708;2023-05-02T00:01:43;95579.47;;;11.28;100.00
1832;BME280;1680;48.106;11.708;2023-05-02T00:04:13;95576.50;;;11.25;100.00
1832;BME280;1680;48.106;11.708;2023-05-02T00:06:42;95572.59;;;11.27;100.00
1832;BME280;1680;48.106;11.708;2023-05-02T00:09:10;95584.59;;;11.23;100.00
1832;BME280;1680;48.106;11.708;2023-05-02T00:11:40;95578.53;;;11.23;100.00
1832;BME280;1680;48.106;11.708;2023-05-02T00:14:08;95572.34;;;11.17;100.00
1832;BME280;1680;48.106;11.708;2023-05-02T00:16:35;95574.31;;;11.22;100.00
1832;BME280;1680;48.106;11.708;2023-05-02T00:19:02;95572.69;;;11.21;100.00
1832;BME280;1680;48.106;11.708;2023-05-02T00:21:31;95566.78;;;11.25;100.00
1832;BME280;1680;48.106;11.708;2023-05-02T00:23:58;95555.00;;;11.16;100.00
1832;BME280;1680;48.106;11.708;2023-05-02T00:26:25;95578.97;;;11.20;100.00
1832;BME280;1680;48.106;11.708;2023-05-02T00:28:53;95571.53;;;11.17;100.00
1832;BME280;1680;48.106;11.708;2023-05-02T00:31:20;95565.84;;;11.20;100.00
1832;BME280;1680;48.106;11.708;2023-05-02T00:33:47;95565.16;;;11.13;100.00
1832;BME280;1680;48.106;11.708;2023-05-02T00:36:15;95577.00;;;11.04;100.00
1832;BME280;1680;48.106;11.708;2023-05-02T00:38:44;95568.22;;;11.10;100.00
1832;BME280;1680;48.106;11.708;2023-05-02T00:41:12;95567.34;;;11.16;100.00
1832;BME280;1680;48.106;11.708;2023-05-02T00:43:39;95567.66;;;11.08;100.00
1832;BME280;1680;48.106;11.708;2023-05-02T00:46:07;95568.09;;;11.05;100.00
1832;BME280;1680;48.106;11.708;2023-05-02T00:48:36;95565.81;;;10.97;100.00
1832;BME280;1680;48.106;11.708;2023-05-02T00:51:04;95558.69;;;10.86;100.00
1832;BME280;1680;48.106;11.708;2023-05-02T00:53:33;95549.19;;;10.73;100.00
1832;BME280;1680;48.106;11.708;2023-05-02T00:56:02;95562.63;;;10.77;100.00
1832;BME280;1680;48.106;11.708;2023-05-02T00:58:30;95564.91;;;10.73;100.00
1832;BME280;1680;48.106;11.708;2023-05-02T01:01:07;95559.97;;;10.65;100.00
1832;BME280;1680;48.106;11.708;2023-05-02T01:03:42;95563.66;;;10.76;100.00
1832;BME280;1680;48.106;11.708;2023-05-02T01:06:27;95560.19;;;10.64;100.00
1832;BME280;1680;48.106;11.708;2023-05-02T01:09:02;95568.38;;;10.56;100.00
1832;BME280;1680;48.106;11.708;2023-05-02T01:11:43;95570.50;;;10.48;100.00
1832;BME280;1680;48.106;11.708;2023-05-02T01:14:14;95570.84;;;10.51;100.00
1832;BME280;1680;48.106;11.708;2023-05-02T01:16:44;95568.53;;;10.43;100.00
1832;BME280;1680;48.106;11.708;2023-05-02T01:19:25;95575.25;;;10.39;100.00
1832;BME280;1680;48.106;11.708;2023-05-02T01:21:55;95579.31;;;10.35;100.00
1832;BME280;1680;48.106;11.708;2023-05-02T01:24:25;95565.03;;;10.31;100.00
1832;BME280;1680;48.106;11.708;2023-05-02T01:27:06;95564.34;;;10.24;100.00
1832;BME280;1680;48.106;11.708;2023-05-02T01:29:39;95580.06;;;10.24;100.00
1832;BME280;1680;48.106;11.708;2023-05-02T01:32:09;95583.47;;;10.43;100.00
1832;BME280;1680;48.106;11.708;2023-05-02T01:34:39;95574.34;;;10.27;100.00
1832;BME280;1680;48.106;11.708;2023-05-02T01:37:10;95588.56;;;10.20;100.00
1832;BME280;1680;48.106;11.708;2023-05-02T01:39:39;95567.66;;;10.13;100.00
1832;BME280;1680;48.106;11.708;2023-05-02T01:42:07;95554.09;;;9.98;100.00
1832;BME280;1680;48.106;11.708;2023-05-02T01:44:35;95584.28;;;10.07;100.00
1832;BME280;1680;48.106;11.708;2023-05-02T01:47:06;95580.63;;;10.08;100.00
1832;BME280;1680;48.106;11.708;2023-05-02T01:49:35;95577.78;;;10.10;100.00
1832;BME280;1680;48.106;11.708;2023-05-02T01:52:04;95580.19;;;10.11;100.00
1832;BME280;1680;48.106;11.708;2023-05-02T01:54:36;95577.00;;;10.09;100.00
1832;BME280;1680;48.106;11.708;2023-05-02T01:57:06;95574.94;;;10.11;100.00
1832;BME280;1680;48.106;11.708;2023-05-02T01:59:35;95581.72;;;10.01;100.00
1832;BME280;1680;48.106;11.708;2023-05-02T02:02:06;95586.97;;;10.01;100.00
1832;BME280;1680;48.106;11.708;2023-05-02T02:04:36;95590.66;;;10.11;100.00
1832;BME280;1680;48.106;11.708;2023-05-02T02:07:07;95593.28;;;10.11;100.00
1832;BME280;1680;48.106;11.708;2023-05-02T02:09:36;95595.53;;;10.08;100.00
1832;BME280;1680;48.106;11.708;2023-05-02T02:12:05;95600.06;;;10.01;100.00
1832;BME280;1680;48.106;11.708;2023-05-02T02:14:36;95604.28;;;10.02;100.00
1832;BME280;1680;48.106;11.708;2023-05-02T02:17:10;95591.53;;;10.05;100.00
1832;BME280;1680;48.106;11.708;2023-05-02T02:19:39;95600.00;;;10.07;100.00
1832;BME280;1680;48.106;11.708;2023-05-02T02:22:07;95598.31;;;10.13;100.00
1832;BME280;1680;48.106;11.708;2023-05-02T02:24:35;95603.19;;;10.09;100.00
1832;BME280;1680;48.106;11.708;2023-05-02T02:27:03;95600.84;;;10.01;100.00
1832;BME280;1680;48.106;11.708;2023-05-02T02:29:31;95596.97;;;10.04;100.00
1832;BME280;1680;48.106;11.708;2023-05-02T02:31:59;95595.03;;;9.99;100.00
1832;BME280;1680;48.106;11.708;2023-05-02T02:34:29;95602.63;;;10.07;100.00
1832;BME280;1680;48.106;11.708;2023-05-02T02:36:59;95602.03;;;10.05;100.00
1832;BME280;1680;48.106;11.708;2023-05-02T02:39:40;95613.94;;;10.01;100.00
1832;BME280;1680;48.106;11.708;2023-05-02T02:42:14;95610.53;;;10.01;100.00
1832;BME280;1680;48.106;11.708;2023-05-02T02:44:55;95611.13;;;9.96;100.00
1832;BME280;1680;48.106;11.708;2023-05-02T02:47:35;95590.13;;;9.85;100.00
1832;BME280;1680;48.106;11.708;2023-05-02T02:50:15;95613.75;;;9.96;100.00
1832;BME280;1680;48.106;11.708;2023-05-02T02:52:51;95619.28;;;9.88;100.00
1832;BME280;1680;48.106;11.708;2023-05-02T02:55:28;95619.56;;;9.80;100.00
1832;BME280;1680;48.106;11.708;2023-05-02T02:57:59;95626.84;;;9.78;100.00
1832;BME280;1680;48.106;11.708;2023-05-02T03:00:28;95620.34;;;9.81;100.00
1832;BME280;1680;48.106;11.708;2023-05-02T03:02:57;95623.22;;;9.79;100.00
1832;BME280;1680;48.106;11.708;2023-05-02T03:05:28;95624.66;;;9.75;100.00
1832;BME280;1680;48.106;11.708;2023-05-02T03:07:58;95630.25;;;9.79;100.00
1832;BME280;1680;48.106;11.708;2023-05-02T03:10:25;95628.06;;;9.76;100.00
1832;BME280;1680;48.106;11.708;2023-05-02T03:12:53;95632.81;;;9.85;100.00
1832;BME280;1680;48.106;11.708;2023-05-02T03:15:35;95634.03;;;9.83;100.00
1832;BME280;1680;48.106;11.708;2023-05-02T03:18:12;95627.44;;;9.80;100.00
1832;BME280;1680;48.106;11.708;2023-05-02T03:20:41;95638.03;;;9.85;100.00
1832;BME280;1680;48.106;11.708;2023-05-02T03:23:08;95626.28;;;9.94;100.00
1832;BME280;1680;48.106;11.708;2023-05-02T03:25:35;95634.00;;;9.89;100.00
1832;BME280;1680;48.106;11.708;2023-05-02T03:28:03;95638.47;;;9.82;100.00
1832;BME280;1680;48.106;11.708;2023-05-02T03:30:30;95632.81;;;9.85;100.00
1832;BME280;1680;48.106;11.708;2023-05-02T03:32:57;95640.31;;;9.82;100.00
1832;BME280;1680;48.106;11.708;2023-05-02T03:35:26;95645.97;;;9.79;100.00
1832;BME280;1680;48.106;11.708;2023-05-02T03:37:54;95628.16;;;9.87;100.00
1832;BME280;1680;48.106;11.708;2023-05-02T03:40:21;95636.88;;;9.81;100.00
1832;BME280;1680;48.106;11.708;2023-05-02T03:42:48;95640.25;;;9.88;100.00
1832;BME280;1680;48.106;11.708;2023-05-02T03:45:16;95628.06;;;9.76;100.00
1832;BME280;1680;48.106;11.708;2023-05-02T03:47:43;95647.78;;;9.78;100.00
1832;BME280;1680;48.106;11.708;2023-05-02T03:50:10;95628.63;;;9.54;100.00
1832;BME280;1680;48.106;11.708;2023-05-02T03:52:37;95648.41;;;9.74;100.00
1832;BME280;1680;48.106;11.708;2023-05-02T03:55:07;95651.91;;;9.68;100.00
1832;BME280;1680;48.106;11.708;2023-05-02T03:57:35;95641.31;;;9.57;100.00
1832;BME280;1680;48.106;11.708;2023-05-02T04:00:02;95661.56;;;9.67;100.00
1832;BME280;1680;48.106;11.708;2023-05-02T04:02:30;95658.94;;;9.67;100.00
1832;BME280;1680;48.106;11.708;2023-05-02T04:04:57;95665.38;;;9.71;100.00
1832;BME280;1680;48.106;11.708;2023-05-02T04:07:24;95668.56;;;9.73;100.00
1832;BME280;1680;48.106;11.708;2023-05-02T04:09:51;95664.34;;;9.72;100.00
1832;BME280;1680;48.106;11.708;2023-05-02T04:12:20;95676.25;;;9.68;100.00
1832;BME280;1680;48.106;11.708;2023-05-02T04:14:47;95686.13;;;9.66;100.00
1832;BME280;1680;48.106;11.708;2023-05-02T04:17:14;95672.84;;;9.68;100.00
1832;BME280;1680;48.106;11.708;2023-05-02T04:19:41;95654.81;;;9.54;100.00
1832;BME280;1680;48.106;11.708;2023-05-02T04:22:08;95680.91;;;9.66;100.00
1832;BME280;1680;48.106;11.708;2023-05-02T04:24:36;95678.88;;;9.68;100.00
1832;BME280;1680;48.106;11.708;2023-05-02T04:27:03;95684.13;;;9.68;100.00
1832;BME280;1680;48.106;11.708;2023-05-02T04:29:32;95684.13;;;9.68;100.00
1832;BME280;1680;48.106;11.708;2023-05-02T04:31:59;95695.28;;;9.58;100.00
1832;BME280;1680;48.106;11.708;2023-05-02T04:34:26;95691.34;;;9.73;100.00
1832;BME280;1680;48.106;11.708;2023-05-02T04:36:54;95664.09;;;9.56;100.00
1832;BME280;1680;48.106;11.708;2023-05-02T04:39:21;95692.75;;;9.75;100.00
1832;BME280;1680;48.106;11.708;2023-05-02T04:41:48;95703.16;;;9.82;100.00
1832;BME280;1680;48.106;11.708;2023-05-02T04:44:15;95698.16;;;9.80;100.00
1832;BME280;1680;48.106;11.708;2023-05-02T04:46:44;95705.34;;;9.85;100.00
1832;BME280;1680;48.106;11.708;2023-05-02T04:49:11;95685.72;;;9.69;100.00
1832;BME280;1680;48.106;11.708;2023-05-02T04:51:39;95690.72;;;9.77;100.00
1832;BME280;1680;48.106;11.708;2023-05-02T04:54:06;95717.38;;;9.92;100.00
1832;BME280;1680;48.106;11.708;2023-05-02T04:56:33;95713.91;;;9.98;100.00
1832;BME280;1680;48.106;11.708;2023-05-02T04:59:00;95727.19;;;10.03;100.00
1832;BME280;1680;48.106;11.708;2023-05-02T05:01:27;95727.38;;;10.08;100.00
1832;BME280;1680;48.106;11.708;2023-05-02T05:03:56;95725.72;;;10.14;100.00
1832;BME280;1680;48.106;11.708;2023-05-02T05:06:23;95737.16;;;10.19;100.00
1832;BME280;1680;48.106;11.708;2023-05-02T05:08:53;95733.69;;;10.25;100.00
1832;BME280;1680;48.106;11.708;2023-05-02T05:11:20;95737.63;;;10.34;100.00
1832;BME280;1680;48.106;11.708;2023-05-02T05:13:47;95736.69;;;10.47;100.00
1832;BME280;1680;48.106;11.708;2023-05-02T05:16:14;95756.00;;;10.52;100.00
1832;BME280;1680;48.106;11.708;2023-05-02T05:18:41;95753.09;;;10.60;100.00
1832;BME280;1680;48.106;11.708;2023-05-02T05:21:10;95752.81;;;10.68;100.00
1832;BME280;1680;48.106;11.708;2023-05-02T05:23:39;95753.25;;;10.65;100.00
1832;BME280;1680;48.106;11.708;2023-05-02T05:26:10;95732.25;;;10.47;100.00
1832;BME280;1680;48.106;11.708;2023-05-02T05:28:38;95766.38;;;10.65;100.00
1832;BME280;1680;48.106;11.708;2023-05-02T05:31:05;95711.56;;;10.57;100.00
1832;BME280;1680;48.106;11.708;2023-05-02T05:33:33;95772.59;;;10.88;100.00
1832;BME280;1680;48.106;11.708;2023-05-02T05:36:04;95772.78;;;10.87;100.00
1832;BME280;1680;48.106;11.708;2023-05-02T05:38:33;95766.69;;;10.93;100.00
1832;BME280;1680;48.106;11.708;2023-05-02T05:41:01;95762.44;;;10.92;100.00
1832;BME280;1680;48.106;11.708;2023-05-02T05:43:29;95776.09;;;11.00;100.00
1832;BME280;1680;48.106;11.708;2023-05-02T05:45:56;95791.75;;;11.07;100.00
1832;BME280;1680;48.106;11.708;2023-05-02T05:48:23;95791.97;;;11.05;100.00
1832;BME280;1680;48.106;11.708;2023-05-02T05:50:50;95786.28;;;10.90;100.00
1832;BME280;1680;48.106;11.708;2023-05-02T05:53:18;95789.56;;;11.04;100.00
1832;BME280;1680;48.106;11.708;2023-05-02T05:55:47;95801.38;;;11.13;100.00
1832;BME280;1680;48.106;11.708;2023-05-02T05:58:14;95807.34;;;11.20;100.00
1832;BME280;1680;48.106;11.708;2023-05-02T06:00:41;95810.13;;;11.25;100.00
1832;BME280;1680;48.106;11.708;2023-05-02T06:03:08;95805.22;;;11.28;100.00
1832;BME280;1680;48.106;11.708;2023-05-02T06:05:35;95807.19;;;11.33;100.00
1832;BME280;1680;48.106;11.708;2023-05-02T06:08:04;95801.59;;;11.29;100.00
1832;BME280;1680;48.106;11.708;2023-05-02T06:10:31;95805.31;;;11.40;100.00
1832;BME280;1680;48.106;11.708;2023-05-02T06:13:00;95810.72;;;11.45;100.00
1832;BME280;1680;48.106;11.708;2023-05-02T06:15:27;95807.38;;;11.56;100.00
1832;BME280;1680;48.106;11.708;2023-05-02T06:17:54;95815.41;;;11.61;100.00
1832;BME280;1680;48.106;11.708;2023-05-02T06:20:21;95812.69;;;11.67;100.00
1832;BME280;1680;48.106;11.708;2023-05-02T06:22:48;95815.06;;;11.68;100.00
1832;BME280;1680;48.106;11.708;2023-05-02T06:25:15;95813.19;;;11.75;100.00
1832;BME280;1680;48.106;11.708;2023-05-02T06:27:42;95815.16;;;11.91;100.00
1832;BME280;1680;48.106;11.708;2023-05-02T06:30:12;95816.81;;;12.04;100.00
1832;BME280;1680;48.106;11.708;2023-05-02T06:32:39;95798.59;;;11.91;100.00
1832;BME280;1680;48.106;11.708;2023-05-02T06:35:09;95821.09;;;12.16;100.00
1832;BME280;1680;48.106;11.708;2023-05-02T06:37:36;95827.94;;;12.17;100.00
1832;BME280;1680;48.106;11.708;2023-05-02T06:40:04;95827.03;;;12.23;100.00
1832;BME280;1680;48.106;11.708;2023-05-02T06:42:31;95836.47;;;12.42;100.00
1832;BME280;1680;48.106;11.708;2023-05-02T06:44:59;95831.13;;;12.60;100.00
1832;BME280;1680;48.106;11.708;2023-05-02T06:47:27;95837.00;;;12.33;100.00
1832;BME280;1680;48.106;11.708;2023-05-02T06:49:54;95838.94;;;12.37;100.00
1832;BME280;1680;48.106;11.708;2023-05-02T06:52:22;95835.09;;;12.51;100.00
1832;BME280;1680;48.106;11.708;2023-05-02T06:54:49;95844.94;;;12.56;100.00
1832;BME280;1680;48.106;11.708;2023-05-02T06:57:16;95843.56;;;12.53;100.00
1832;BME280;1680;48.106;11.708;2023-05-02T06:59:43;95838.19;;;12.59;100.00
1832;BME280;1680;48.106;11.708;2023-05-02T07:02:10;95853.09;;;12.77;100.00
1832;BME280;1680;48.106;11.708;2023-05-02T07:04:39;95846.56;;;12.68;100.00
1832;BME280;1680;48.106;11.708;2023-05-02T07:07:06;95855.28;;;12.80;100.00
1832;BME280;1680;48.106;11.708;2023-05-02T07:09:33;95854.81;;;12.83;100.00
1832;BME280;1680;48.106;11.708;2023-05-02T07:12:00;95862.41;;;12.91;100.00
1832;BME280;1680;48.106;11.708;2023-05-02T07:14:28;95854.41;;;12.97;100.00
1832;BME280;1680;48.106;11.708;2023-05-02T07:16:55;95858.97;;;13.02;100.00
1832;BME280;1680;48.106;11.708;2023-05-02T07:19:22;95855.44;;;13.08;100.00
1832;BME280;1680;48.106;11.708;2023-05-02T07:21:51;95860.59;;;13.26;100.00
1832;BME280;1680;48.106;11.708;2023-05-02T07:24:18;95853.72;;;13.25;100.00
1832;BME280;1680;48.106;11.708;2023-05-02T07:26:45;95858.03;;;13.42;100.00
1832;BME280;1680;48.106;11.708;2023-05-02T07:29:12;95848.53;;;13.41;100.00
1832;BME280;1680;48.106;11.708;2023-05-02T07:31:39;95854.69;;;13.58;100.00
1832;BME280;1680;48.106;11.708;2023-05-02T07:34:06;95857.75;;;13.66;100.00
1832;BME280;1680;48.106;11.708;2023-05-02T07:36:33;95856.13;;;13.77;100.00
1832;BME280;1680;48.106;11.708;2023-05-02T07:39:02;95858.91;;;13.70;100.00
1832;BME280;1680;48.106;11.708;2023-05-02T07:41:29;95853.41;;;13.60;100.00
1832;BME280;1680;48.106;11.708;2023-05-02T07:43:56;95863.41;;;13.47;100.00
1832;BME280;1680;48.106;11.708;2023-05-02T07:46:23;95853.53;;;13.65;100.00
1832;BME280;1680;48.106;11.708;2023-05-02T07:48:51;95865.50;;;13.84;100.00
1832;BME280;1680;48.106;11.708;2023-05-02T07:51:18;95865.66;;;13.78;100.00
1832;BME280;1680;48.106;11.708;2023-05-02T07:53:49;95857.09;;;13.87;100.00
1832;BME280;1680;48.106;11.708;2023-05-02T07:56:19;95863.41;;;13.86;100.00
1832;BME280;1680;48.106;11.708;2023-05-02T07:58:46;95874.81;;;14.03;100.00
1832;BME280;1680;48.106;11.708;2023-05-02T08:01:14;95869.38;;;13.93;100.00
1832;BME280;1680;48.106;11.708;2023-05-02T08:03:41;95851.41;;;13.79;100.00
1832;BME280;1680;48.106;11.708;2023-05-02T08:06:08;95879.00;;;13.88;100.00
1832;BME280;1680;48.106;11.708;2023-05-02T08:08:35;95886.97;;;14.04;100.00
1832;BME280;1680;48.106;11.708;2023-05-02T08:11:03;95888.59;;;14.05;100.00
1832;BME280;1680;48.106;11.708;2023-05-02T08:13:31;95882.47;;;14.16;100.00
1832;BME280;1680;48.106;11.708;2023-05-02T08:15:58;95877.72;;;14.13;100.00
1832;BME280;1680;48.106;11.708;2023-05-02T08:18:27;95886.66;;;14.01;100.00
1832;BME280;1680;48.106;11.708;2023-05-02T08:20:55;95883.06;;;14.18;100.00
1832;BME280;1680;48.106;11.708;2023-05-02T08:23:22;95896.59;;;14.10;100.00
1832;BME280;1680;48.106;11.708;2023-05-02T08:25:53;95879.09;;;14.32;100.00
1832;BME280;1680;48.106;11.708;2023-05-02T08:28:20;95877.38;;;14.38;100.00
1832;BME280;1680;48.106;11.708;2023-05-02T08:30:48;95885.88;;;14.56;100.00
1832;BME280;1680;48.106;11.708;2023-05-02T08:33:15;95880.75;;;14.66;100.00
1832;BME280;1680;48.106;11.708;2023-05-02T08:35:43;95866.19;;;14.80;100.00
1832;BME280;1680;48.106;11.708;2023-05-02T08:38:10;95897.91;;;14.96;100.00
1832;BME280;1680;48.106;11.708;2023-05-02T08:40:37;95879.31;;;15.08;100.00
1832;BME280;1680;48.106;11.708;2023-05-02T08:43:05;95890.28;;;15.16;96.29
1832;BME280;1680;48.106;11.708;2023-05-02T08:45:34;95896.38;;;14.84;97.48
1832;BME280;1680;48.106;11.708;2023-05-02T08:48:08;95905.50;;;14.76;98.04
1832;BME280;1680;48.106;11.708;2023-05-02T08:50:36;95887.31;;;14.63;97.88
1832;BME280;1680;48.106;11.708;2023-05-02T08:53:04;95891.88;;;14.52;99.99
1832;BME280;1680;48.106;11.708;2023-05-02T08:55:33;95906.78;;;14.90;99.54
1832;BME280;1680;48.106;11.708;2023-05-02T08:58:02;95912.16;;;15.12;100.00
1832;BME280;1680;48.106;11.708;2023-05-02T09:00:29;95888.63;;;15.27;99.53
1832;BME280;1680;48.106;11.708;2023-05-02T09:03:19;95912.75;;;15.52;97.14
1832;BME280;1680;48.106;11.708;2023-05-02T09:05:51;95905.56;;;15.63;93.31
1832;BME280;1680;48.106;11.708;2023-05-02T09:08:22;95908.59;;;15.93;91.77
1832;BME280;1680;48.106;11.708;2023-05-02T09:10:50;95889.06;;;15.99;89.96
1832;BME280;1680;48.106;11.708;2023-05-02T09:13:30;95911.22;;;16.15;91.04
1832;BME280;1680;48.106;11.708;2023-05-02T09:16:02;95913.81;;;16.31;92.82
1832;BME280;1680;48.106;11.708;2023-05-02T09:18:34;95916.47;;;16.31;90.87
1832;BME280;1680;48.106;11.708;2023-05-02T09:21:04;95913.56;;;16.54;91.41
1832;BME280;1680;48.106;11.708;2023-05-02T09:23:38;95902.09;;;16.27;86.47
1832;BME280;1680;48.106;11.708;2023-05-02T09:26:16;95918.69;;;16.39;86.94
1832;BME280;1680;48.106;11.708;2023-05-02T09:28:44;95920.81;;;16.42;87.56
1832;BME280;1680;48.106;11.708;2023-05-02T09:31:14;95923.78;;;16.24;87.68
1832;BME280;1680;48.106;11.708;2023-05-02T09:33:43;95927.34;;;16.35;89.86
1832;BME280;1680;48.106;11.708;2023-05-02T09:36:12;95921.66;;;16.26;92.22
1832;BME280;1680;48.106;11.708;2023-05-02T09:38:40;95922.72;;;16.04;90.27
1832;BME280;1680;48.106;11.708;2023-05-02T09:41:08;95921.63;;;16.00;89.00
1832;BME280;1680;48.106;11.708;2023-05-02T09:43:35;95918.41;;;15.76;87.89
1832;BME280;1680;48.106;11.708;2023-05-02T09:46:04;95929.56;;;15.78;84.79
1832;BME280;1680;48.106;11.708;2023-05-02T09:48:32;95928.50;;;15.79;89.94
1832;BME280;1680;48.106;11.708;2023-05-02T09:51:01;95917.50;;;15.87;89.15
1832;BME280;1680;48.106;11.708;2023-05-02T09:53:29;95923.94;;;15.96;88.64
1832;BME280;1680;48.106;11.708;2023-05-02T09:56:00;95934.47;;;15.91;89.73
1832;BME280;1680;48.106;11.708;2023-05-02T09:58:27;95934.19;;;15.88;90.20
1832;BME280;1680;48.106;11.708;2023-05-02T10:00:57;95932.91;;;15.74;87.50
1832;BME280;1680;48.106;11.708;2023-05-02T10:03:26;95927.78;;;15.84;86.36
1832;BME280;1680;48.106;11.708;2023-05-02T10:05:54;95931.47;;;15.83;88.06
1832;BME280;1680;48.106;11.708;2023-05-02T10:08:24;95929.56;;;15.62;88.12
1832;BME280;1680;48.106;11.708;2023-05-02T10:10:54;95929.91;;;15.65;89.91
1832;BME280;1680;48.106;11.708;2023-05-02T10:13:25;95932.25;;;15.83;88.26
1832;BME280;1680;48.106;11.708;2023-05-02T10:15:59;95909.78;;;15.64;85.74
1832;BME280;1680;48.106;11.708;2023-05-02T10:18:28;95874.03;;;15.41;89.60
1832;BME280;1680;48.106;11.708;2023-05-02T10:21:04;95933.28;;;15.82;87.00
1832;BME280;1680;48.106;11.708;2023-05-02T10:23:35;95913.53;;;15.68;83.80
1832;BME280;1680;48.106;11.708;2023-05-02T10:26:04;95897.19;;;15.71;83.39
1832;BME280;1680;48.106;11.708;2023-05-02T10:28:32;95924.13;;;16.11;84.21
1832;BME280;1680;48.106;11.708;2023-05-02T10:31:01;95912.94;;;16.04;87.25
1832;BME280;1680;48.106;11.708;2023-05-02T10:33:29;95926.72;;;16.49;86.10
1832;BME280;1680;48.106;11.708;2023-05-02T10:35:57;95926.06;;;16.63;84.79
1832;BME280;1680;48.106;11.708;2023-05-02T10:38:24;95925.84;;;16.65;82.37
1832;BME280;1680;48.106;11.708;2023-05-02T10:40:56;95928.63;;;16.53;85.85
1832;BME280;1680;48.106;11.708;2023-05-02T10:43:27;95930.22;;;16.81;82.35
1832;BME280;1680;48.106;11.708;2023-05-02T10:45:54;95921.03;;;16.62;83.54
1832;BME280;1680;48.106;11.708;2023-05-02T10:48:23;95918.69;;;16.39;81.93
1832;BME280;1680;48.106;11.708;2023-05-02T10:50:52;95919.94;;;16.32;83.05
1832;BME280;1680;48.106;11.708;2023-05-02T10:53:23;95914.47;;;16.00;85.75
1832;BME280;1680;48.106;11.708;2023-05-02T10:56:14;95919.34;;;16.08;86.73
1832;BME280;1680;48.106;11.708;2023-05-02T10:58:42;95918.81;;;16.06;85.63
1832;BME280;1680;48.106;11.708;2023-05-02T11:01:34;95914.47;;;15.79;85.55
1832;BME280;1680;48.106;11.708;2023-05-02T11:04:04;95934.91;;;15.46;95.72
1832;BME280;1680;48.106;11.708;2023-05-02T11:06:33;95934.78;;;14.91;100.00
1832;BME280;1680;48.106;11.708;2023-05-02T11:09:31;95932.34;;;14.57;100.00
1832;BME280;1680;48.106;11.708;2023-05-02T11:12:01;95933.47;;;14.33;100.00
1832;BME280;1680;48.106;11.708;2023-05-02T11:14:48;95921.38;;;14.09;100.00
1832;BME280;1680;48.106;11.708;2023-05-02T11:17:15;95920.22;;;14.05;100.00
1832;BME280;1680;48.106;11.708;2023-05-02T11:22:56;95915.91;;;13.99;100.00
1832;BME280;1680;48.106;11.708;2023-05-02T11:25:34;95924.59;;;14.11;100.00
1832;BME280;1680;48.106;11.708;2023-05-02T11:30:54;95924.44;;;14.57;100.00
1832;BME280;1680;48.106;11.708;2023-05-02T11:33:22;95923.72;;;14.78;100.00
1832;BME280;1680;48.106;11.708;2023-05-02T11:35:49;95944.38;;;14.81;100.00
1832;BME280;1680;48.106;11.708;2023-05-02T11:38:19;95916.16;;;14.81;100.00
1832;BME280;1680;48.106;11.708;2023-05-02T11:40:57;95942.41;;;15.04;100.00
1832;BME280;1680;48.106;11.708;2023-05-02T11:43:27;95936.78;;;15.17;100.00
1832;BME280;1680;48.106;11.708;2023-05-02T11:45:55;95944.38;;;15.25;100.00
1832;BME280;1680;48.106;11.708;2023-05-02T11:48:24;95949.28;;;15.22;100.00
1832;BME280;1680;48.106;11.708;2023-05-02T11:50:54;95950.59;;;15.03;100.00
1832;BME280;1680;48.106;11.708;2023-05-02T11:53:23;95958.97;;;14.55;100.00
1832;BME280;1680;48.106;11.708;2023-05-02T11:55:52;95957.13;;;14.28;100.00
1832;BME280;1680;48.106;11.708;2023-05-02T11:58:20;95955.69;;;13.86;100.00
1832;BME280;1680;48.106;11.708;2023-05-02T12:00:50;95958.59;;;13.73;100.00
1832;BME280;1680;48.106;11.708;2023-05-02T12:03:22;95961.13;;;13.46;100.00
1832;BME280;1680;48.106;11.708;2023-05-02T12:05:50;95965.59;;;13.34;100.00
1832;BME280;1680;48.106;11.708;2023-05-02T12:08:19;95967.78;;;13.37;100.00
1832;BME280;1680;48.106;11.708;2023-05-02T12:10:47;95964.69;;;13.28;100.00
1832;BME280;1680;48.106;11.708;2023-05-02T12:13:16;95954.47;;;13.20;100.00
1832;BME280;1680;48.106;11.708;2023-05-02T12:15:47;95947.16;;;13.11;100.00
1832;BME280;1680;48.106;11.708;2023-05-02T12:18:18;95943.22;;;13.02;100.00
1832;BME280;1680;48.106;11.708;2023-05-02T12:20:49;95965.44;;;13.06;100.00
1832;BME280;1680;48.106;11.708;2023-05-02T12:23:18;95973.19;;;12.89;100.00
1832;BME280;1680;48.106;11.708;2023-05-02T12:25:46;95968.47;;;12.80;100.00
1832;BME280;1680;48.106;11.708;2023-05-02T12:28:16;95967.88;;;12.78;100.00
1832;BME280;1680;48.106;11.708;2023-05-02T12:30:48;95975.00;;;12.89;100.00
1832;BME280;1680;48.106;11.708;2023-05-02T12:33:17;95981.00;;;12.96;100.00
1832;BME280;1680;48.106;11.708;2023-05-02T12:35:45;95979.19;;;13.08;100.00
1832;BME280;1680;48.106;11.708;2023-05-02T12:38:14;95972.22;;;13.13;100.00
1832;BME280;1680;48.106;11.708;2023-05-02T12:40:46;95977.03;;;13.28;100.00
1832;BME280;1680;48.106;11.708;2023-05-02T12:43:14;95976.47;;;13.37;100.00
1832;BME280;1680;48.106;11.708;2023-05-02T12:45:41;95967.88;;;13.42;100.00
1832;BME280;1680;48.106;11.708;2023-05-02T12:48:23;95955.06;;;13.45;100.00
1832;BME280;1680;48.106;11.708;2023-05-02T12:50:52;95935.72;;;13.40;100.00
1832;BME280;1680;48.106;11.708;2023-05-02T12:53:39;95968.19;;;13.91;100.00
1832;BME280;1680;48.106;11.708;2023-05-02T12:56:09;95958.56;;;13.96;100.00
1832;BME280;1680;48.106;11.708;2023-05-02T12:58:40;95961.16;;;14.19;100.00
1832;BME280;1680;48.106;11.708;2023-05-02T13:01:08;95962.41;;;14.28;100.00
1832;BME280;1680;48.106;11.708;2023-05-02T13:03:38;95974.00;;;14.55;100.00
1832;BME280;1680;48.106;11.708;2023-05-02T13:06:06;95976.13;;;14.69;100.00
1832;BME280;1680;48.106;11.708;2023-05-02T13:08:34;95970.91;;;15.02;100.00
1832;BME280;1680;48.106;11.708;2023-05-02T13:11:02;95970.28;;;15.12;100.00
1832;BME280;1680;48.106;11.708;2023-05-02T13:13:29;95973.50;;;15.47;100.00
1832;BME280;1680;48.106;11.708;2023-05-02T13:15:57;95946.25;;;15.46;100.00
1832;BME280;1680;48.106;11.708;2023-05-02T13:18:25;95972.34;;;15.75;100.00
1832;BME280;1680;48.106;11.708;2023-05-02T13:20:56;95967.84;;;15.92;100.00
1832;BME280;1680;48.106;11.708;2023-05-02T13:23:25;95964.94;;;16.15;100.00